sensor_id;sensor_type;location;lat;lon;timestamp;P1;durP1;ratioP1;P2;durP2;ratioP2
34557;SDS011;24708;48.888;8.736;2023-04-12T05:30:41;4.00;;;2.50;;
34557;SDS011;24708;48.888;8.736;2023-04-12T05:33:09;7.93;;;3.83;;
34557;SDS011;24708;48.888;8.736;2023-04-12T05:35:37;5.32;;;3.05;;
34557;SDS011;24708;48.888;8.736;2023-04-12T05:38:04;6.38;;;2.25;;
34557;SDS011;24708;48.888;8.736;2023-04-12T05:40:31;5.90;;;2.88;;
34557;SDS011;24708;48.888;8.736;2023-04-12T05:42:59;2.97;;;2.33;;
34557;SDS011;24708;48.888;8.736;2023-04-12T05:45:26;6.78;;;3.03;;
34557;SDS011;24708;48.888;8.736;2023-04-12T05:47:55;4.38;;;2.67;;
34557;SDS011;24708;48.888;8.736;2023-04-12T05:50:22;3.72;;;2.53;;
34557;SDS011;24708;48.888;8.736;2023-04-12T05:52:49;3.00;;;2.10;;
34557;SDS011;24708;48.888;8.736;2023-04-12T05:55:17;5.43;;;3.35;;
34557;SDS011;24708;48.888;8.736;2023-04-12T05:57:44;3.05;;;2.10;;
34557;SDS011;24708;48.888;8.736;2023-04-12T06:00:12;4.50;;;2.40;;
34557;SDS011;24708;48.888;8.736;2023-04-12T06:02:44;2.17;;;1.97;;
34557;SDS011;24708;48.888;8.736;2023-04-12T06:05:13;2.08;;;1.88;;
34557;SDS011;24708;48.888;8.736;2023-04-12T06:07:42;5.03;;;2.65;;
34557;SDS011;24708;48.888;8.736;2023-04-12T06:10:14;5.25;;;2.58;;
34557;SDS011;24708;48.888;8.736;2023-04-12T06:12:43;2.78;;;2.40;;
34557;SDS011;24708;48.888;8.736;2023-04-12T06:15:11;4.50;;;2.20;;
34557;SDS011;24708;48.888;8.736;2023-04-12T06:17:38;3.78;;;2.22;;
34557;SDS011;24708;48.888;8.736;2023-04-12T06:20:05;5.28;;;2.10;;
34557;SDS011;24708;48.888;8.736;2023-04-12T06:22:36;7.97;;;3.03;;
34557;SDS011;24708;48.888;8.736;2023-04-12T06:25:04;6.07;;;2.20;;
34557;SDS011;24708;48.888;8.736;2023-04-12T06:27:31;3.25;;;2.58;;
34557;SDS011;24708;48.888;8.736;2023-04-12T06:29:58;4.13;;;2.63;;
34557;SDS011;24708;48.888;8.736;2023-04-12T06:32:26;4.05;;;2.53;;
34557;SDS011;24708;48.888;8.736;2023-04-12T06:34:53;4.43;;;2.17;;
34557;SDS011;24708;48.888;8.736;2023-04-12T06:37:21;5.45;;;2.47;;
34557;SDS011;24708;48.888;8.736;2023-04-12T06:39:48;4.10;;;2.80;;
34557;SDS011;24708;48.888;8.736;2023-04-12T06:42:16;3.78;;;2.70;;
34557;SDS011;24708;48.888;8.736;2023-04-12T06:44:43;5.80;;;2.35;;
34557;SDS011;24708;48.888;8.736;2023-04-12T06:47:13;5.72;;;2.90;;
34557;SDS011;24708;48.888;8.736;2023-04-12T06:49:41;2.70;;;1.98;;
34557;SDS011;24708;48.888;8.736;2023-04-12T06:52:08;2.53;;;2.20;;
34557;SDS011;24708;48.888;8.736;2023-04-12T06:54:36;2.95;;;2.63;;
34557;SDS011;24708;48.888;8.736;2023-04-12T06:57:08;5.35;;;2.33;;
34557;SDS011;24708;48.888;8.736;2023-04-12T06:59:37;11.13;;;3.13;;
34557;SDS011;24708;48.888;8.736;2023-04-12T07:02:07;5.05;;;2.30;;
34557;SDS011;24708;48.888;8.736;2023-04-12T07:04:34;4.35;;;2.20;;
34557;SDS011;24708;48.888;8.736;2023-04-12T07:07:02;2.97;;;2.00;;
34557;SDS011;24708;48.888;8.736;2023-04-12T07:09:30;8.52;;;2.60;;
34557;SDS011;24708;48.888;8.736;2023-04-12T07:11:59;2.47;;;2.00;;
34557;SDS011;24708;48.888;8.736;2023-04-12T07:14:27;4.70;;;2.70;;
34557;SDS011;24708;48.888;8.736;2023-04-12T07:16:54;3.72;;;2.55;;
34557;SDS011;24708;48.888;8.736;2023-04-12T07:19:22;3.83;;;2.40;;
34557;SDS011;24708;48.888;8.736;2023-04-12T07:21:49;4.10;;;2.22;;
34557;SDS011;24708;48.888;8.736;2023-04-12T07:24:16;2.78;;;2.30;;
34557;SDS011;24708;48.888;8.736;2023-04-12T07:26:44;4.70;;;2.67;;
34557;SDS011;24708;48.888;8.736;2023-04-12T07:29:11;6.82;;;2.60;;
34557;SDS011;24708;48.888;8.736;2023-04-12T07:31:38;3.20;;;2.13;;
34557;SDS011;24708;48.888;8.736;2023-04-12T07:34:06;3.50;;;2.00;;
34557;SDS011;24708;48.888;8.736;2023-04-12T07:36:33;4.38;;;2.08;;
34557;SDS011;24708;48.888;8.736;2023-04-12T07:39:01;3.10;;;2.33;;
34557;SDS011;24708;48.888;8.736;2023-04-12T07:41:28;5.53;;;2.63;;
34557;SDS011;24708;48.888;8.736;2023-04-12T07:43:55;5.03;;;2.38;;
34557;SDS011;24708;48.888;8.736;2023-04-12T07:46:22;7.25;;;2.90;;
34557;SDS011;24708;48.888;8.736;2023-04-12T07:48:50;10.07;;;7.47;;
34557;SDS011;24708;48.888;8.736;2023-04-12T07:51:17;10.30;;;2.90;;
34557;SDS011;24708;48.888;8.736;2023-04-12T07:53:44;4.40;;;3.78;;
34557;SDS011;24708;48.888;8.736;2023-04-12T07:56:14;3.30;;;2.67;;
34557;SDS011;24708;48.888;8.736;2023-04-12T07:58:42;2.70;;;2.30;;
34557;SDS011;24708;48.888;8.736;2023-04-12T08:01:10;4.03;;;2.80;;
34557;SDS011;24708;48.888;8.736;2023-04-12T08:03:38;4.57;;;2.20;;
34557;SDS011;24708;48.888;8.736;2023-04-12T08:06:06;5.93;;;2.60;;
34557;SDS011;24708;48.888;8.736;2023-04-12T08:08:34;5.68;;;2.25;;
34557;SDS011;24708;48.888;8.736;2023-04-12T08:11:01;6.60;;;2.55;;
34557;SDS011;24708;48.888;8.736;2023-04-12T08:13:31;6.45;;;2.67;;
34557;SDS011;24708;48.888;8.736;2023-04-12T08:15:59;5.55;;;2.95;;
34557;SDS011;24708;48.888;8.736;2023-04-12T08:18:27;4.03;;;2.45;;
34557;SDS011;24708;48.888;8.736;2023-04-12T08:20:55;9.98;;;3.65;;
34557;SDS011;24708;48.888;8.736;2023-04-12T08:23:23;7.20;;;2.42;;
34557;SDS011;24708;48.888;8.736;2023-04-12T08:25:51;6.57;;;2.53;;
34557;SDS011;24708;48.888;8.736;2023-04-12T08:28:28;2.60;;;2.10;;
34557;SDS011;24708;48.888;8.736;2023-04-12T08:30:56;5.60;;;2.50;;
34557;SDS011;24708;48.888;8.736;2023-04-12T08:33:25;19.35;;;4.28;;
34557;SDS011;24708;48.888;8.736;2023-04-12T08:35:53;9.10;;;4.07;;
34557;SDS011;24708;48.888;8.736;2023-04-12T08:38:20;9.07;;;3.53;;
34557;SDS011;24708;48.888;8.736;2023-04-12T08:41:07;8.40;;;3.72;;
34557;SDS011;24708;48.888;8.736;2023-04-12T08:43:34;7.93;;;3.47;;
34557;SDS011;24708;48.888;8.736;2023-04-12T08:46:03;12.32;;;3.60;;
34557;SDS011;24708;48.888;8.736;2023-04-12T08:48:31;4.22;;;2.42;;
34557;SDS011;24708;48.888;8.736;2023-04-12T08:50:58;8.32;;;2.53;;
34557;SDS011;24708;48.888;8.736;2023-04-12T08:53:26;4.10;;;2.50;;
34557;SDS011;24708;48.888;8.736;2023-04-12T08:55:53;13.07;;;3.28;;
34557;SDS011;24708;48.888;8.736;2023-04-12T08:58:21;4.20;;;2.83;;
34557;SDS011;24708;48.888;8.736;2023-04-12T09:00:48;4.43;;;2.13;;
34557;SDS011;24708;48.888;8.736;2023-04-12T09:03:16;4.07;;;2.70;;
34557;SDS011;24708;48.888;8.736;2023-04-12T09:05:44;4.95;;;2.47;;
34557;SDS011;24708;48.888;8.736;2023-04-12T09:08:11;6.10;;;2.05;;
34557;SDS011;24708;48.888;8.736;2023-04-12T09:10:38;5.38;;;2.25;;
34557;SDS011;24708;48.888;8.736;2023-04-12T09:13:07;2.13;;;1.70;;
34557;SDS011;24708;48.888;8.736;2023-04-12T09:15:34;4.97;;;2.15;;
34557;SDS011;24708;48.888;8.736;2023-04-12T09:20:37;3.47;;;2.05;;
34557;SDS011;24708;48.888;8.736;2023-04-12T09:23:26;5.13;;;2.00;;
34557;SDS011;24708;48.888;8.736;2023-04-12T09:25:52;1.63;;;1.52;;
34557;SDS011;24708;48.888;8.736;2023-04-12T09:28:24;5.28;;;1.90;;
34557;SDS011;24708;48.888;8.736;2023-04-12T09:30:53;6.82;;;2.38;;
34557;SDS011;24708;48.888;8.736;2023-04-12T09:33:22;5.80;;;2.63;;
34557;SDS011;24708;48.888;8.736;2023-04-12T09:36:05;5.13;;;2.10;;
34557;SDS011;24708;48.888;8.736;2023-04-12T09:38:39;3.72;;;1.95;;
34557;SDS011;24708;48.888;8.736;2023-04-12T09:41:18;2.38;;;1.95;;
34557;SDS011;24708;48.888;8.736;2023-04-12T09:43:53;2.20;;;1.77;;
34557;SDS011;24708;48.888;8.736;2023-04-12T09:46:20;8.60;;;2.03;;
34557;SDS011;24708;48.888;8.736;2023-04-12T09:48:49;2.53;;;1.60;;
34557;SDS011;24708;48.888;8.736;2023-04-12T09:51:22;5.63;;;1.80;;
34557;SDS011;24708;48.888;8.736;2023-04-12T09:54:01;7.55;;;2.10;;
34557;SDS011;24708;48.888;8.736;2023-04-12T09:56:30;5.65;;;1.92;;
34557;SDS011;24708;48.888;8.736;2023-04-12T09:59:00;2.70;;;1.40;;
34557;SDS011;24708;48.888;8.736;2023-04-12T10:04:07;2.22;;;1.40;;
34557;SDS011;24708;48.888;8.736;2023-04-12T10:06:36;2.15;;;1.45;;
34557;SDS011;24708;48.888;8.736;2023-04-12T10:09:04;3.05;;;1.75;;
34557;SDS011;24708;48.888;8.736;2023-04-12T10:11:34;3.13;;;1.50;;
34557;SDS011;24708;48.888;8.736;2023-04-12T10:14:03;1.88;;;1.35;;
34557;SDS011;24708;48.888;8.736;2023-04-12T10:16:33;4.05;;;2.15;;
34557;SDS011;24708;48.888;8.736;2023-04-12T10:19:01;6.40;;;1.95;;
34557;SDS011;24708;48.888;8.736;2023-04-12T10:21:29;2.33;;;1.33;;
34557;SDS011;24708;48.888;8.736;2023-04-12T10:23:57;1.23;;;0.88;;
34557;SDS011;24708;48.888;8.736;2023-04-12T10:26:25;3.80;;;1.20;;
34557;SDS011;24708;48.888;8.736;2023-04-12T10:29:20;4.53;;;1.17;;
34557;SDS011;24708;48.888;8.736;2023-04-12T10:31:54;0.75;;;0.75;;
34557;SDS011;24708;48.888;8.736;2023-04-12T10:34:23;2.38;;;1.30;;
34557;SDS011;24708;48.888;8.736;2023-04-12T10:36:55;1.42;;;1.05;;
34557;SDS011;24708;48.888;8.736;2023-04-12T10:40:01;1.17;;;0.85;;
34557;SDS011;24708;48.888;8.736;2023-04-12T10:44:53;0.77;;;0.60;;
34557;SDS011;24708;48.888;8.736;2023-04-12T10:50:25;0.60;;;0.50;;
34557;SDS011;24708;48.888;8.736;2023-04-12T10:55:41;0.60;;;0.50;;
34557;SDS011;24708;48.888;8.736;2023-04-12T10:58:11;3.25;;;0.90;;
34557;SDS011;24708;48.888;8.736;2023-04-12T11:01:15;0.80;;;0.75;;
34557;SDS011;24708;48.888;8.736;2023-04-12T11:04:31;1.45;;;0.90;;
34557;SDS011;24708;48.888;8.736;2023-04-12T11:14:36;0.90;;;0.70;;
34557;SDS011;24708;48.888;8.736;2023-04-12T11:19:48;1.33;;;0.57;;
34557;SDS011;24708;48.888;8.736;2023-04-12T11:22:18;2.67;;;0.50;;
34557;SDS011;24708;48.888;8.736;2023-04-12T11:24:49;1.15;;;0.60;;
34557;SDS011;24708;48.888;8.736;2023-04-12T11:27:18;0.57;;;0.50;;
34557;SDS011;24708;48.888;8.736;2023-04-12T11:29:51;0.90;;;0.30;;
34557;SDS011;24708;48.888;8.736;2023-04-12T11:32:21;1.52;;;0.60;;
34557;SDS011;24708;48.888;8.736;2023-04-12T11:34:52;1.35;;;0.50;;
34557;SDS011;24708;48.888;8.736;2023-04-12T11:37:22;4.55;;;0.30;;
34557;SDS011;24708;48.888;8.736;2023-04-12T11:39:51;0.82;;;0.40;;
34557;SDS011;24708;48.888;8.736;2023-04-12T11:42:20;2.03;;;0.40;;
34557;SDS011;24708;48.888;8.736;2023-04-12T11:44:49;1.17;;;0.50;;
34557;SDS011;24708;48.888;8.736;2023-04-12T11:47:27;0.80;;;0.40;;
34557;SDS011;24708;48.888;8.736;2023-04-12T11:49:55;0.50;;;0.30;;
34557;SDS011;24708;48.888;8.736;2023-04-12T11:52:27;1.15;;;0.30;;
34557;SDS011;24708;48.888;8.736;2023-04-12T11:57:26;1.48;;;0.47;;
34557;SDS011;24708;48.888;8.736;2023-04-12T11:59:55;0.90;;;0.43;;
34557;SDS011;24708;48.888;8.736;2023-04-12T12:02:25;0.55;;;0.38;;
34557;SDS011;24708;48.888;8.736;2023-04-12T12:04:58;1.13;;;0.43;;
34557;SDS011;24708;48.888;8.736;2023-04-12T12:07:26;0.75;;;0.30;;
34557;SDS011;24708;48.888;8.736;2023-04-12T12:09:54;0.63;;;0.38;;
34557;SDS011;24708;48.888;8.736;2023-04-12T12:12:22;1.85;;;0.40;;
34557;SDS011;24708;48.888;8.736;2023-04-12T12:14:49;0.70;;;0.52;;
34557;SDS011;24708;48.888;8.736;2023-04-12T12:17:17;0.82;;;0.50;;
34557;SDS011;24708;48.888;8.736;2023-04-12T12:19:45;0.68;;;0.50;;
34557;SDS011;24708;48.888;8.736;2023-04-12T12:22:16;3.28;;;0.43;;
34557;SDS011;24708;48.888;8.736;2023-04-12T12:24:56;0.40;;;0.40;;
34557;SDS011;24708;48.888;8.736;2023-04-12T12:27:35;0.43;;;0.30;;
34557;SDS011;24708;48.888;8.736;2023-04-12T12:30:05;0.82;;;0.40;;
34557;SDS011;24708;48.888;8.736;2023-04-12T12:32:34;1.27;;;0.80;;
34557;SDS011;24708;48.888;8.736;2023-04-12T12:35:09;0.22;;;0.22;;
34557;SDS011;24708;48.888;8.736;2023-04-12T12:37:48;0.95;;;0.65;;
34557;SDS011;24708;48.888;8.736;2023-04-12T12:40:17;2.28;;;0.60;;
34557;SDS011;24708;48.888;8.736;2023-04-12T12:42:53;2.75;;;0.43;;
34557;SDS011;24708;48.888;8.736;2023-04-12T12:45:23;0.68;;;0.68;;
34557;SDS011;24708;48.888;8.736;2023-04-12T12:50:28;1.27;;;0.50;;
34557;SDS011;24708;48.888;8.736;2023-04-12T12:52:57;1.50;;;0.50;;
34557;SDS011;24708;48.888;8.736;2023-04-12T12:55:27;0.50;;;0.50;;
34557;SDS011;24708;48.888;8.736;2023-04-12T12:57:55;1.45;;;0.57;;
34557;SDS011;24708;48.888;8.736;2023-04-12T13:00:27;1.38;;;0.60;;
34557;SDS011;24708;48.888;8.736;2023-04-12T13:02:55;0.40;;;0.40;;
34557;SDS011;24708;48.888;8.736;2023-04-12T13:05:22;0.68;;;0.57;;
34557;SDS011;24708;48.888;8.736;2023-04-12T13:07:50;1.17;;;0.60;;
34557;SDS011;24708;48.888;8.736;2023-04-12T13:10:17;0.68;;;0.50;;
34557;SDS011;24708;48.888;8.736;2023-04-12T13:12:44;1.10;;;0.50;;
34557;SDS011;24708;48.888;8.736;2023-04-12T13:15:12;2.65;;;0.50;;
34557;SDS011;24708;48.888;8.736;2023-04-12T13:17:42;2.15;;;0.60;;
34557;SDS011;24708;48.888;8.736;2023-04-12T13:20:10;1.35;;;0.55;;
34557;SDS011;24708;48.888;8.736;2023-04-12T13:22:37;1.48;;;0.50;;
34557;SDS011;24708;48.888;8.736;2023-04-12T13:25:04;1.02;;;0.60;;
34557;SDS011;24708;48.888;8.736;2023-04-12T13:27:32;1.98;;;1.05;;
34557;SDS011;24708;48.888;8.736;2023-04-12T13:29:59;1.65;;;0.47;;
34557;SDS011;24708;48.888;8.736;2023-04-12T13:32:26;2.22;;;1.20;;
34557;SDS011;24708;48.888;8.736;2023-04-12T13:34:54;1.38;;;0.70;;
34557;SDS011;24708;48.888;8.736;2023-04-12T13:37:21;1.00;;;0.50;;
34557;SDS011;24708;48.888;8.736;2023-04-12T13:39:49;0.65;;;0.38;;
34557;SDS011;24708;48.888;8.736;2023-04-12T13:42:17;1.67;;;0.80;;
34557;SDS011;24708;48.888;8.736;2023-04-12T13:44:44;0.70;;;0.50;;
34557;SDS011;24708;48.888;8.736;2023-04-12T13:47:11;2.83;;;0.40;;
34557;SDS011;24708;48.888;8.736;2023-04-12T13:49:39;0.70;;;0.50;;
34557;SDS011;24708;48.888;8.736;2023-04-12T13:52:06;0.60;;;0.50;;
34557;SDS011;24708;48.888;8.736;2023-04-12T13:54:34;2.15;;;0.80;;
34557;SDS011;24708;48.888;8.736;2023-04-12T13:57:01;1.58;;;0.60;;
34557;SDS011;24708;48.888;8.736;2023-04-12T13:59:29;3.00;;;0.60;;
34557;SDS011;24708;48.888;8.736;2023-04-12T14:01:57;0.63;;;0.45;;
34557;SDS011;24708;48.888;8.736;2023-04-12T14:04:26;0.55;;;0.38;;
34557;SDS011;24708;48.888;8.736;2023-04-12T14:06:53;2.30;;;0.47;;
34557;SDS011;24708;48.888;8.736;2023-04-12T14:09:22;0.77;;;0.47;;
34557;SDS011;24708;48.888;8.736;2023-04-12T14:11:53;0.55;;;0.40;;
34557;SDS011;24708;48.888;8.736;2023-04-12T14:14:23;0.85;;;0.60;;
34557;SDS011;24708;48.888;8.736;2023-04-12T14:16:52;0.98;;;0.50;;
34557;SDS011;24708;48.888;8.736;2023-04-12T14:19:23;2.35;;;0.50;;
34557;SDS011;24708;48.888;8.736;2023-04-12T14:21:50;3.90;;;0.60;;
34557;SDS011;24708;48.888;8.736;2023-04-12T14:24:19;2.05;;;0.95;;
34557;SDS011;24708;48.888;8.736;2023-04-12T14:26:47;0.75;;;0.52;;
34557;SDS011;24708;48.888;8.736;2023-04-12T14:29:15;0.60;;;0.50;;
34557;SDS011;24708;48.888;8.736;2023-04-12T14:31:43;1.48;;;0.50;;
34557;SDS011;24708;48.888;8.736;2023-04-12T14:34:10;0.60;;;0.43;;
34557;SDS011;24708;48.888;8.736;2023-04-12T14:36:39;0.95;;;0.65;;
34557;SDS011;24708;48.888;8.736;2023-04-12T14:39:06;0.90;;;0.60;;
34557;SDS011;24708;48.888;8.736;2023-04-12T14:41:38;1.17;;;0.63;;
34557;SDS011;24708;48.888;8.736;2023-04-12T14:44:06;3.05;;;0.50;;
34557;SDS011;24708;48.888;8.736;2023-04-12T14:46:33;3.25;;;0.60;;
34557;SDS011;24708;48.888;8.736;2023-04-12T14:49:00;0.63;;;0.63;;
34557;SDS011;24708;48.888;8.736;2023-04-12T14:51:28;1.48;;;0.70;;
34557;SDS011;24708;48.888;8.736;2023-04-12T14:53:55;4.10;;;0.85;;
34557;SDS011;24708;48.888;8.736;2023-04-12T14:56:24;2.88;;;0.85;;
34557;SDS011;24708;48.888;8.736;2023-04-12T14:58:55;1.80;;;0.80;;
34557;SDS011;24708;48.888;8.736;2023-04-12T15:01:23;0.75;;;0.75;;
34557;SDS011;24708;48.888;8.736;2023-04-12T15:03:51;0.80;;;0.80;;
34557;SDS011;24708;48.888;8.736;2023-04-12T15:06:20;2.05;;;0.82;;
34557;SDS011;24708;48.888;8.736;2023-04-12T15:08:49;0.80;;;0.80;;
34557;SDS011;24708;48.888;8.736;2023-04-12T15:11:20;5.97;;;0.80;;
34557;SDS011;24708;48.888;8.736;2023-04-12T15:13:53;0.90;;;0.87;;
34557;SDS011;24708;48.888;8.736;2023-04-12T15:16:21;6.07;;;1.60;;
34557;SDS011;24708;48.888;8.736;2023-04-12T15:18:49;1.00;;;0.77;;
34557;SDS011;24708;48.888;8.736;2023-04-12T15:21:17;1.60;;;0.82;;
34557;SDS011;24708;48.888;8.736;2023-04-12T15:23:44;2.33;;;0.98;;
34557;SDS011;24708;48.888;8.736;2023-04-12T15:26:13;1.40;;;0.77;;
34557;SDS011;24708;48.888;8.736;2023-04-12T15:28:41;0.93;;;0.90;;
34557;SDS011;24708;48.888;8.736;2023-04-12T15:31:08;1.73;;;0.98;;
34557;SDS011;24708;48.888;8.736;2023-04-12T15:33:37;2.38;;;1.13;;
34557;SDS011;24708;48.888;8.736;2023-04-12T15:36:05;5.38;;;0.77;;
34557;SDS011;24708;48.888;8.736;2023-04-12T15:38:38;0.73;;;0.73;;
34557;SDS011;24708;48.888;8.736;2023-04-12T15:41:07;4.45;;;1.00;;
34557;SDS011;24708;48.888;8.736;2023-04-12T15:43:35;5.72;;;0.90;;
34557;SDS011;24708;48.888;8.736;2023-04-12T15:46:02;3.55;;;0.85;;
34557;SDS011;24708;48.888;8.736;2023-04-12T15:48:29;1.20;;;1.10;;
34557;SDS011;24708;48.888;8.736;2023-04-12T15:50:57;1.00;;;0.90;;
34557;SDS011;24708;48.888;8.736;2023-04-12T15:53:25;0.80;;;0.80;;
34557;SDS011;24708;48.888;8.736;2023-04-12T15:55:55;1.08;;;0.90;;
34557;SDS011;24708;48.888;8.736;2023-04-12T15:58:23;0.90;;;0.90;;
